Terminal Aerodrome Forecast
Issued by NWS

Home | Current Version | Previous Version | Text Only | Print | Product List | Glossary On
Versions: 1 2 3 4 5 6 7 8 9 10 11 12
334
FTUS46 KSEW 281120
TAFCLM
TAF
KCLM 281120Z 2812/2912 26010KT P6SM SCT045
     FM281500 29007KT P6SM SCT050
     FM281800 31006KT P6SM FEW050
     FM290100 32009KT P6SM SKC
     FM290700 27007KT P6SM BKN200=

USA.gov is the U.S. government's official web portal to all federal, state and local government web resources and services.